Time;durP1;ratioP1;P1;durP2;ratioP2;P2;SDS_P1;SDS_P2;PMS_P1;PMS_P2;Temp;Humidity;BMP_temperature;BMP_pressure;BME280_temperature;BME280_humidity;BME280_pressure;Samples;Min_cycle;Max_cycle;Signal;HPM_P1;HPM_P2
2023/11/27 00:01:35;;;;;;;2.83;2.08;;;;;;;-1.41;65.13;94226.13;4194429;28;20116;-70
2023/11/27 00:03:38;;;;;;;3.85;2.25;;;;;;;-1.45;65.40;94246.06;4200321;28;20497;-69
2023/11/27 00:05:40;;;;;;;2.97;2.10;;;;;;;-1.37;65.45;94231.91;4191332;28;20056;-70
2023/11/27 00:07:42;;;;;;;4.93;2.35;;;;;;;-1.36;65.30;94244.63;4176469;28;20728;-70
2023/11/27 00:09:44;;;;;;;3.30;2.20;;;;;;;-1.24;65.11;94263.59;4195596;28;20583;-71
2023/11/27 00:11:46;;;;;;;3.17;1.92;;;;;;;-1.29;63.95;94283.63;4190624;28;20049;-68
2023/11/27 00:13:48;;;;;;;3.45;2.10;;;;;;;-1.28;64.34;94251.88;4191843;28;20076;-70
2023/11/27 00:15:50;;;;;;;2.85;1.80;;;;;;;-1.29;63.81;94253.63;4194870;28;20060;-71
2023/11/27 00:17:52;;;;;;;3.58;2.10;;;;;;;-1.24;63.75;94240.47;4178105;28;20056;-68
2023/11/27 00:19:54;;;;;;;2.63;1.80;;;;;;;-1.15;63.45;94254.47;4164617;28;20487;-70
2023/11/27 00:21:56;;;;;;;7.05;2.20;;;;;;;-1.12;63.48;94274.81;4193712;28;20506;-71
2023/11/27 00:23:58;;;;;;;3.25;1.85;;;;;;;-1.30;63.38;94259.66;4196988;28;20102;-68
2023/11/27 00:26:03;;;;;;;3.42;1.80;;;;;;;-1.23;63.63;94270.38;4179285;28;20115;-67
2023/11/27 00:28:06;;;;;;;2.83;1.60;;;;;;;-1.26;62.75;94296.28;4193432;28;20120;-70
2023/11/27 00:30:08;;;;;;;2.70;1.63;;;;;;;-1.33;63.12;94275.28;4190860;28;20060;-69
2023/11/27 00:32:10;;;;;;;3.85;1.92;;;;;;;-1.29;62.97;94276.75;4195954;28;20080;-67
2023/11/27 00:34:12;;;;;;;2.15;1.40;;;;;;;-1.25;63.06;94277.34;4184674;28;20139;-71
2023/11/27 00:36:14;;;;;;;2.83;1.60;;;;;;;-1.32;63.14;94273.53;4190850;28;20045;-69
2023/11/27 00:38:16;;;;;;;2.80;1.90;;;;;;;-1.33;63.78;94288.16;4181487;28;20049;-68
2023/11/27 00:40:19;;;;;;;3.75;1.45;;;;;;;-1.28;63.11;94285.28;4195307;28;20482;-70
2023/11/27 00:42:21;;;;;;;3.50;1.85;;;;;;;-1.27;62.74;94287.75;4185782;28;20064;-68
2023/11/27 00:44:23;;;;;;;6.45;1.70;;;;;;;-1.32;63.35;94302.63;4197110;28;20321;-70
2023/11/27 00:46:25;;;;;;;4.78;1.80;;;;;;;-1.29;64.24;94275.91;4191228;28;20543;-69
2023/11/27 00:48:26;;;;;;;3.03;1.75;;;;;;;-1.28;64.18;94309.22;4175585;28;20049;-70
2023/11/27 00:50:28;;;;;;;3.00;1.67;;;;;;;-1.26;63.02;94288.56;4193593;28;20055;-68
2023/11/27 00:52:30;;;;;;;3.08;1.83;;;;;;;-1.40;63.67;94311.75;4194623;28;20410;-68
2023/11/27 00:54:33;;;;;;;3.17;1.60;;;;;;;-1.38;64.14;94297.88;4196969;28;20083;-71
2023/11/27 00:56:36;;;;;;;4.55;1.75;;;;;;;-1.35;64.18;94289.97;4194469;28;20052;-69
2023/11/27 00:58:37;;;;;;;2.60;1.77;;;;;;;-1.17;63.83;94321.41;4192143;28;20128;-69
2023/11/27 01:00:39;;;;;;;3.55;1.85;;;;;;;-1.07;64.16;94308.78;4196582;28;20083;-69
2023/11/27 01:02:41;;;;;;;2.92;1.75;;;;;;;-1.28;64.05;94324.66;4195104;28;20152;-72
2023/11/27 01:04:44;;;;;;;5.28;1.60;;;;;;;-1.20;64.48;94316.47;4193105;28;20067;-68
2023/11/27 01:06:50;;;;;;;2.38;1.67;;;;;;;-1.22;63.92;94308.03;4193013;28;20080;-70
2023/11/27 01:08:52;;;;;;;2.95;1.50;;;;;;;-1.12;63.01;94308.25;4192880;28;20135;-72
2023/11/27 01:10:54;;;;;;;2.90;1.77;;;;;;;-1.09;64.03;94318.34;4196963;28;20114;-70
2023/11/27 01:12:56;;;;;;;2.58;1.73;;;;;;;-1.18;64.50;94318.91;4171384;28;20396;-69
2023/11/27 01:14:58;;;;;;;2.92;1.60;;;;;;;-1.20;65.22;94320.78;4192276;28;20415;-69
2023/11/27 01:17:01;;;;;;;3.35;1.85;;;;;;;-1.14;65.56;94320.38;4192654;28;20045;-69
2023/11/27 01:19:03;;;;;;;2.97;1.60;;;;;;;-1.17;65.40;94313.69;4188567;28;20048;-69
2023/11/27 01:21:05;;;;;;;3.67;1.98;;;;;;;-1.19;65.25;94322.41;4193419;28;20066;-69
2023/11/27 01:23:07;;;;;;;4.10;1.83;;;;;;;-1.11;65.57;94318.44;4194219;28;20045;-68
2023/11/27 01:25:10;;;;;;;3.42;2.00;;;;;;;-1.09;65.05;94319.16;4173696;28;20594;-68
2023/11/27 01:27:12;;;;;;;2.53;1.70;;;;;;;-1.24;65.58;94320.97;4184349;28;20144;-70
2023/11/27 01:29:14;;;;;;;3.47;1.80;;;;;;;-1.20;65.59;94305.38;4180317;28;20159;-70
2023/11/27 01:31:16;;;;;;;2.72;1.70;;;;;;;-1.29;65.92;94289.59;4185930;28;20132;-69
2023/11/27 01:33:17;;;;;;;6.60;1.45;;;;;;;-1.36;65.64;94296.03;4193893;28;20056;-69
2023/11/27 01:35:20;;;;;;;2.28;1.40;;;;;;;-1.32;65.29;94323.19;4178507;28;20187;-69
2023/11/27 01:37:22;;;;;;;2.35;1.48;;;;;;;-1.30;64.91;94295.66;4190383;28;20084;-67
2023/11/27 01:39:24;;;;;;;2.38;1.52;;;;;;;-1.27;64.42;94297.19;4189342;28;20044;-70
2023/11/27 01:41:26;;;;;;;2.97;1.60;;;;;;;-1.31;63.65;94288.06;4195352;28;20388;-69
2023/11/27 01:43:28;;;;;;;2.97;1.42;;;;;;;-1.37;63.39;94280.72;4176383;28;20491;-69
2023/11/27 01:45:30;;;;;;;2.90;1.65;;;;;;;-1.22;63.96;94286.66;4189540;28;20616;-69
2023/11/27 01:47:32;;;;;;;2.25;1.42;;;;;;;-1.24;63.94;94302.97;4194435;28;20458;-70
2023/11/27 01:49:34;;;;;;;7.32;1.90;;;;;;;-1.36;63.17;94296.03;4195715;28;20044;-70
2023/11/27 01:51:36;;;;;;;2.95;1.55;;;;;;;-1.30;63.70;94302.53;4191173;28;20075;-69
2023/11/27 01:53:38;;;;;;;1.85;1.25;;;;;;;-1.34;63.51;94301.09;4179141;28;20049;-68
2023/11/27 01:55:41;;;;;;;2.97;1.45;;;;;;;-1.32;63.95;94307.75;4178450;28;20053;-69
2023/11/27 01:57:42;;;;;;;6.82;1.50;;;;;;;-1.31;64.36;94304.28;4192642;28;20049;-70
2023/11/27 01:59:46;;;;;;;2.45;1.27;;;;;;;-1.26;63.87;94307.38;4153905;28;20064;-69
2023/11/27 02:01:48;;;;;;;3.15;1.50;;;;;;;-1.18;63.64;94308.63;4195410;28;20462;-68
2023/11/27 02:03:50;;;;;;;3.22;1.50;;;;;;;-1.29;64.12;94317.03;4202087;28;20419;-69
2023/11/27 02:05:52;;;;;;;3.20;1.50;;;;;;;-1.29;64.18;94306.75;4177491;28;20712;-71
2023/11/27 02:07:53;;;;;;;2.10;1.10;;;;;;;-1.37;64.54;94321.84;4192760;28;20547;-70
2023/11/27 02:09:55;;;;;;;3.00;1.73;;;;;;;-1.38;65.26;94325.31;4187389;28;20487;-70
2023/11/27 02:11:57;;;;;;;2.53;1.45;;;;;;;-1.28;65.18;94323.81;4190052;28;20144;-69
2023/11/27 02:13:59;;;;;;;2.78;1.55;;;;;;;-1.31;65.10;94314.56;4184369;28;20044;-68
2023/11/27 02:16:01;;;;;;;2.55;1.30;;;;;;;-1.23;64.92;94350.03;4183466;28;20453;-68
2023/11/27 02:18:04;;;;;;;1.90;1.48;;;;;;;-1.21;65.36;94326.81;4195147;28;20044;-70
2023/11/27 02:20:06;;;;;;;2.58;1.50;;;;;;;-1.34;65.63;94332.72;4194230;28;20053;-69
2023/11/27 02:22:08;;;;;;;2.13;1.45;;;;;;;-1.34;65.84;94334.50;4194930;28;20091;-68
2023/11/27 02:24:10;;;;;;;2.85;1.65;;;;;;;-1.34;66.60;94330.16;4195582;28;20048;-68
2023/11/27 02:26:12;;;;;;;2.72;1.65;;;;;;;-1.34;66.15;94325.03;4168816;28;20100;-70
2023/11/27 02:28:14;;;;;;;2.60;1.50;;;;;;;-1.38;66.19;94344.13;4177506;28;20116;-69
2023/11/27 02:30:16;;;;;;;3.22;1.58;;;;;;;-1.38;66.31;94331.28;4195920;28;20106;-69
2023/11/27 02:32:18;;;;;;;2.80;1.45;;;;;;;-1.39;66.34;94315.97;4185879;28;20124;-69
2023/11/27 02:34:20;;;;;;;2.40;1.50;;;;;;;-1.39;65.89;94332.22;4184351;28;20483;-69
2023/11/27 02:36:24;;;;;;;2.38;1.33;;;;;;;-1.30;65.36;94308.50;4171526;28;20044;-70
2023/11/27 02:38:26;;;;;;;2.95;1.50;;;;;;;-1.27;65.12;94298.03;4185370;28;20396;-71
2023/11/27 02:40:29;;;;;;;2.80;1.40;;;;;;;-1.33;65.07;94305.31;4192238;28;20053;-69
2023/11/27 02:42:31;;;;;;;3.22;1.77;;;;;;;-1.25;64.35;94305.63;4191445;28;20132;-70
2023/11/27 02:44:33;;;;;;;2.90;1.50;;;;;;;-1.22;64.72;94322.63;4155575;28;20133;-69
2023/11/27 02:46:35;;;;;;;2.58;1.58;;;;;;;-1.21;65.41;94319.13;4185789;28;20132;-68
2023/11/27 02:48:37;;;;;;;1.98;1.30;;;;;;;-1.23;65.28;94321.78;4177077;28;20123;-70
2023/11/27 02:50:39;;;;;;;2.17;1.33;;;;;;;-1.23;65.11;94321.78;4193963;28;20052;-68
2023/11/27 02:52:41;;;;;;;2.05;1.38;;;;;;;-1.27;65.33;94336.59;4182663;28;20483;-67
2023/11/27 02:54:43;;;;;;;3.40;1.48;;;;;;;-1.35;65.27;94333.66;4187249;28;20044;-68
2023/11/27 02:56:46;;;;;;;2.13;1.30;;;;;;;-1.30;65.41;94331.63;4186802;28;20515;-69
2023/11/27 02:58:48;;;;;;;2.95;1.40;;;;;;;-1.21;64.57;94324.25;4171623;28;20128;-68
2023/11/27 03:00:50;;;;;;;2.80;1.60;;;;;;;-1.14;64.82;94317.78;4193066;28;20079;-69
2023/11/27 03:02:52;;;;;;;1.88;1.42;;;;;;;-1.11;65.13;94317.63;4188108;28;20052;-68
2023/11/27 03:04:54;;;;;;;1.77;1.38;;;;;;;-1.11;65.33;94327.91;4167517;28;20049;-69
2023/11/27 03:06:57;;;;;;;2.33;1.58;;;;;;;-1.12;65.49;94333.94;4194051;28;20059;-69
2023/11/27 03:08:59;;;;;;;3.72;1.73;;;;;;;-1.08;66.01;94325.13;4176679;28;20056;-70
2023/11/27 03:11:01;;;;;;;3.28;1.63;;;;;;;-1.06;66.24;94333.56;4181060;28;20049;-69
2023/11/27 03:13:03;;;;;;;3.22;1.70;;;;;;;-1.19;66.56;94333.50;4194802;28;20123;-69
2023/11/27 03:15:08;;;;;;;3.70;1.90;;;;;;;-1.09;66.80;94329.44;4194864;28;20257;-70
2023/11/27 03:17:10;;;;;;;2.53;1.80;;;;;;;-1.19;67.23;94338.66;4193840;28;20056;-70
2023/11/27 03:19:12;;;;;;;3.97;2.10;;;;;;;-1.12;67.43;94341.66;4183898;28;20165;-69
2023/11/27 03:21:21;;;;;;;4.47;2.05;;;;;;;-1.14;67.45;94339.22;4192997;28;20498;-67
2023/11/27 03:23:23;;;;;;;4.68;2.00;;;;;;;-1.17;67.42;94348.84;4177672;28;20051;-69
2023/11/27 03:25:25;;;;;;;2.60;1.75;;;;;;;-1.20;67.36;94359.34;4174573;28;20057;-70
2023/11/27 03:27:27;;;;;;;3.50;1.90;;;;;;;-1.25;67.15;94352.75;4193134;28;20049;-69
2023/11/27 03:29:29;;;;;;;3.15;2.10;;;;;;;-1.19;67.28;94353.25;4187264;28;20037;-69
2023/11/27 03:31:31;;;;;;;4.13;1.63;;;;;;;-1.33;67.04;94377.28;4192339;28;20206;-70
2023/11/27 03:33:33;;;;;;;2.67;1.60;;;;;;;-1.32;66.99;94356.59;4182447;28;20475;-69
2023/11/27 03:35:34;;;;;;;4.35;1.90;;;;;;;-1.14;66.93;94359.78;4192976;28;20052;-71
2023/11/27 03:37:36;;;;;;;3.17;1.73;;;;;;;-1.09;66.75;94342.28;4194758;28;20057;-69
2023/11/27 03:39:39;;;;;;;3.03;1.63;;;;;;;-1.13;66.35;94340.84;4194882;28;20162;-69
2023/11/27 03:41:40;;;;;;;2.75;1.75;;;;;;;-1.19;66.34;94336.09;4192202;28;20061;-68
2023/11/27 03:43:42;;;;;;;2.88;1.60;;;;;;;-1.19;65.32;94335.28;4195660;28;20047;-69
2023/11/27 03:45:44;;;;;;;4.05;1.85;;;;;;;-1.23;66.07;94332.06;4197993;28;20056;-69
2023/11/27 03:47:46;;;;;;;5.10;1.98;;;;;;;-1.17;66.28;94329.09;4199072;28;20106;-71
2023/11/27 03:49:48;;;;;;;2.63;1.80;;;;;;;-1.14;66.39;94333.22;4178752;28;20153;-69
2023/11/27 03:51:50;;;;;;;3.67;1.58;;;;;;;-1.09;65.58;94324.31;4187759;28;20135;-69
2023/11/27 03:53:52;;;;;;;2.17;1.45;;;;;;;-1.04;63.27;94332.53;4198550;28;20048;-69
2023/11/27 03:55:54;;;;;;;2.58;1.60;;;;;;;-1.04;64.02;94337.69;4197649;28;20117;-68
2023/11/27 03:57:56;;;;;;;3.35;1.40;;;;;;;-0.99;63.74;94350.25;4196170;28;20059;-70
2023/11/27 03:59:58;;;;;;;2.08;1.40;;;;;;;-0.90;62.70;94331.66;4197772;28;20048;-69
2023/11/27 04:02:00;;;;;;;4.55;1.35;;;;;;;-0.95;62.09;94336.25;4196894;28;20071;-70
2023/11/27 04:04:02;;;;;;;2.10;1.50;;;;;;;-1.00;62.21;94345.22;4187208;28;20053;-71
2023/11/27 04:06:05;;;;;;;1.90;1.20;;;;;;;-0.96;62.61;94328.66;4176374;28;20443;-71
2023/11/27 04:08:08;;;;;;;2.15;1.30;;;;;;;-0.88;61.54;94373.53;4197123;28;20128;-68
2023/11/27 04:10:15;;;;;;;1.92;1.40;;;;;;;-0.80;61.16;94334.44;4196998;28;20409;-71
2023/11/27 04:12:18;;;;;;;2.50;1.50;;;;;;;-0.78;61.43;94326.63;4196479;28;20110;-72
2023/11/27 04:14:20;;;;;;;2.33;1.45;;;;;;;-0.73;61.94;94340.00;4194527;28;20069;-68
2023/11/27 04:16:22;;;;;;;2.30;1.20;;;;;;;-0.86;62.20;94330.53;4187076;28;20413;-70
2023/11/27 04:18:24;;;;;;;1.80;1.40;;;;;;;-0.96;61.88;94359.53;4178682;28;20049;-69
2023/11/27 04:20:26;;;;;;;3.85;1.83;;;;;;;-0.86;61.70;94358.84;4196331;28;20506;-70
2023/11/27 04:22:28;;;;;;;1.73;1.35;;;;;;;-0.90;61.79;94338.56;4199512;28;20076;-73
2023/11/27 04:24:30;;;;;;;2.28;1.50;;;;;;;-0.91;62.09;94362.63;4181953;28;20045;-70
2023/11/27 04:26:32;;;;;;;2.45;1.40;;;;;;;-0.82;62.11;94349.16;4195602;28;20503;-68
2023/11/27 04:28:34;;;;;;;2.20;1.50;;;;;;;-0.87;62.81;94354.59;4197320;28;20047;-70
2023/11/27 04:30:36;;;;;;;3.08;1.65;;;;;;;-0.86;62.98;94374.25;4169437;28;20067;-70
2023/11/27 04:32:38;;;;;;;2.35;1.50;;;;;;;-0.85;62.96;94352.75;4196510;28;20056;-69
2023/11/27 04:34:40;;;;;;;2.38;1.58;;;;;;;-0.88;62.76;94342.69;4179546;28;20053;-70
2023/11/27 04:36:42;;;;;;;4.93;1.80;;;;;;;-0.92;63.02;94366.94;4194034;28;20157;-70
2023/11/27 04:38:44;;;;;;;2.22;1.63;;;;;;;-0.95;63.90;94361.97;4178395;28;20163;-68
2023/11/27 04:40:45;;;;;;;2.38;1.77;;;;;;;-0.87;63.09;94362.31;4197307;28;20218;-70
2023/11/27 04:42:47;;;;;;;2.42;1.83;;;;;;;-0.86;62.81;94397.41;4188123;28;20464;-71
2023/11/27 04:44:49;;;;;;;2.33;1.50;;;;;;;-0.87;62.79;94380.31;4182922;28;20446;-69
2023/11/27 04:46:52;;;;;;;3.08;1.75;;;;;;;-0.85;63.57;94373.31;4184929;28;20058;-68
2023/11/27 04:48:54;;;;;;;3.25;1.63;;;;;;;-0.81;63.67;94384.25;4196538;28;20044;-72
2023/11/27 04:50:56;;;;;;;3.03;1.80;;;;;;;-0.85;63.66;94382.78;4192371;28;20066;-71
2023/11/27 04:52:58;;;;;;;3.03;1.83;;;;;;;-0.87;63.52;94379.50;4187717;28;20049;-69
2023/11/27 04:55:02;;;;;;;2.78;1.40;;;;;;;-0.92;62.64;94377.22;4190832;28;20063;-70
2023/11/27 04:57:07;;;;;;;2.10;1.50;;;;;;;-0.92;62.15;94377.22;4187308;28;20356;-70
2023/11/27 04:59:10;;;;;;;3.22;1.75;;;;;;;-0.85;62.81;94381.03;4158955;28;20041;-69
2023/11/27 05:01:13;;;;;;;2.42;1.73;;;;;;;-0.88;63.23;94399.25;4172558;28;20148;-70
2023/11/27 05:03:16;;;;;;;2.72;1.63;;;;;;;-0.77;62.14;94390.84;4183910;28;20076;-69
2023/11/27 05:05:18;;;;;;;3.25;2.08;;;;;;;-0.81;62.50;94404.00;4196628;28;20094;-71
2023/11/27 05:07:20;;;;;;;2.38;1.70;;;;;;;-0.74;62.55;94393.22;4196956;28;20055;-72
2023/11/27 05:09:22;;;;;;;2.88;1.50;;;;;;;-0.73;62.14;94396.59;4196465;28;20075;-74
2023/11/27 05:11:24;;;;;;;3.25;1.73;;;;;;;-0.75;62.52;94394.16;4197409;28;20048;-70
2023/11/27 05:13:26;;;;;;;2.40;1.60;;;;;;;-0.85;62.64;94403.38;4179182;28;20073;-72
2023/11/27 05:15:28;;;;;;;2.08;1.60;;;;;;;-0.79;61.05;94410.69;4197566;28;20131;-71
2023/11/27 05:17:30;;;;;;;3.80;1.83;;;;;;;-0.75;61.50;94408.75;4194180;28;20052;-70
2023/11/27 05:19:35;;;;;;;2.80;1.85;;;;;;;-0.76;61.25;94407.09;4181539;28;20483;-71
2023/11/27 05:21:37;;;;;;;2.00;1.50;;;;;;;-0.80;61.41;94410.78;4191958;28;20461;-72
2023/11/27 05:23:41;;;;;;;2.38;1.70;;;;;;;-0.79;61.54;94397.03;4178026;28;20056;-70
2023/11/27 05:25:43;;;;;;;2.70;1.67;;;;;;;-0.79;61.83;94399.59;4196990;28;20048;-70
2023/11/27 05:27:45;;;;;;;2.42;1.70;;;;;;;-0.92;61.87;94392.66;4188941;28;20052;-72
2023/11/27 05:29:47;;;;;;;2.05;1.48;;;;;;;-0.98;61.64;94410.22;4194287;28;20479;-71
2023/11/27 05:31:49;;;;;;;3.08;1.70;;;;;;;-0.97;61.92;94404.97;4193844;28;20474;-70
2023/11/27 05:33:51;;;;;;;2.53;1.80;;;;;;;-0.88;61.68;94408.72;4194599;28;20052;-70
2023/11/27 05:35:53;;;;;;;2.63;1.60;;;;;;;-0.79;61.40;94417.59;4188352;28;20048;-71
2023/11/27 05:37:55;;;;;;;2.92;1.67;;;;;;;-0.86;61.16;94417.97;4196345;28;20059;-71
2023/11/27 05:39:57;;;;;;;2.88;1.65;;;;;;;-0.88;61.49;94424.97;4193610;28;20127;-71
2023/11/27 05:42:02;;;;;;;4.22;2.05;;;;;;;-0.87;61.79;94429.19;4168497;28;20130;-71
2023/11/27 05:44:06;;;;;;;3.47;1.70;;;;;;;-0.94;61.68;94437.38;4197597;28;20044;-70
2023/11/27 05:46:09;;;;;;;3.38;2.10;;;;;;;-0.98;61.34;94423.88;4196756;28;20130;-71
2023/11/27 05:48:12;;;;;;;4.07;1.73;;;;;;;-0.92;61.76;94444.09;4193315;28;20424;-71
2023/11/27 05:50:14;;;;;;;4.60;1.77;;;;;;;-1.00;61.61;94450.63;4186760;28;20071;-70
2023/11/27 05:52:16;;;;;;;3.17;1.58;;;;;;;-0.98;61.29;94439.31;4197231;28;20451;-71
2023/11/27 05:54:18;;;;;;;2.15;1.50;;;;;;;-0.99;61.65;94452.25;4196697;28;20050;-72
2023/11/27 05:56:20;;;;;;;2.70;1.70;;;;;;;-1.06;61.61;94457.78;4182241;28;20076;-73
2023/11/27 05:58:22;;;;;;;2.60;1.60;;;;;;;-0.98;61.38;94451.34;4186826;28;20040;-71
2023/11/27 06:00:24;;;;;;;3.35;1.70;;;;;;;-1.01;61.86;94430.97;4168742;28;20041;-72
2023/11/27 06:02:26;;;;;;;3.15;1.77;;;;;;;-1.09;61.87;94462.31;4174387;28;20056;-73
2023/11/27 06:04:28;;;;;;;5.47;2.10;;;;;;;-1.02;62.49;94437.84;4203205;28;20457;-70
2023/11/27 06:06:30;;;;;;;3.22;1.88;;;;;;;-0.97;62.69;94453.81;4196054;28;20052;-72
2023/11/27 06:08:36;;;;;;;2.80;1.77;;;;;;;-0.97;62.41;94451.25;4190308;28;20044;-70
2023/11/27 06:10:38;;;;;;;4.43;2.10;;;;;;;-0.95;62.24;94467.41;4193190;28;20046;-71
2023/11/27 06:12:40;;;;;;;2.90;1.95;;;;;;;-0.95;62.42;94464.00;4191694;28;20060;-70
2023/11/27 06:14:42;;;;;;;3.15;1.90;;;;;;;-0.82;61.51;94446.88;4191584;28;20044;-71
2023/11/27 06:16:44;;;;;;;3.38;2.30;;;;;;;-0.76;61.77;94453.41;4186653;28;20056;-72
2023/11/27 06:18:46;;;;;;;4.53;2.30;;;;;;;-0.76;61.47;94468.84;4187149;28;20055;-73
2023/11/27 06:20:48;;;;;;;3.22;2.22;;;;;;;-0.63;61.62;94459.41;4189866;28;20056;-71
2023/11/27 06:22:51;;;;;;;3.83;2.38;;;;;;;-0.53;61.23;94452.75;4173322;28;20048;-69
2023/11/27 06:24:53;;;;;;;3.70;2.63;;;;;;;-0.56;61.37;94452.97;4196515;28;20051;-70
2023/11/27 06:26:58;;;;;;;3.63;2.22;;;;;;;-0.40;60.88;94449.41;4194563;28;20131;-69
2023/11/27 06:29:00;;;;;;;3.20;2.10;;;;;;;-0.38;60.89;94453.53;4183988;28;20049;-72
2023/11/27 06:31:02;;;;;;;4.85;2.20;;;;;;;-0.34;59.95;94459.31;4189036;28;20128;-69
2023/11/27 06:33:04;;;;;;;3.25;1.90;;;;;;;-0.21;59.64;94465.31;4195843;28;20056;-71
2023/11/27 06:35:11;;;;;;;4.55;2.10;;;;;;;-0.04;59.28;94471.94;4194808;28;20071;-71
2023/11/27 06:37:15;;;;;;;3.45;1.90;;;;;;;0.06;59.11;94464.41;4178431;28;20048;-69
2023/11/27 06:39:17;;;;;;;3.08;2.00;;;;;;;-0.06;58.44;94476.38;4195933;28;20140;-73
2023/11/27 06:41:19;;;;;;;3.25;1.92;;;;;;;-0.05;59.06;94480.56;4176367;28;20664;-71
2023/11/27 06:43:21;;;;;;;3.53;1.90;;;;;;;0.03;58.49;94487.81;4193553;28;20083;-73
2023/11/27 06:45:22;;;;;;;3.05;2.00;;;;;;;0.06;58.72;94498.72;4185376;28;20094;-71
2023/11/27 06:47:24;;;;;;;5.07;2.13;;;;;;;0.02;58.52;94506.75;4187658;28;20051;-70
2023/11/27 06:49:26;;;;;;;5.35;2.05;;;;;;;-0.10;58.63;94493.75;4174249;28;20490;-71
2023/11/27 06:51:28;;;;;;;3.10;1.80;;;;;;;0.02;57.91;94492.13;4194195;28;20052;-70
2023/11/27 06:53:30;;;;;;;3.35;2.03;;;;;;;-0.03;57.32;94512.22;4195436;28;20495;-68
2023/11/27 06:55:32;;;;;;;4.60;1.75;;;;;;;0.01;56.89;94512.84;4195533;28;20501;-73
2023/11/27 06:57:34;;;;;;;3.08;1.80;;;;;;;-0.18;56.79;94519.16;4195041;28;20049;-74
2023/11/27 06:59:39;;;;;;;3.47;2.03;;;;;;;-0.10;58.11;94492.94;4181549;28;20533;-72
2023/11/27 07:01:43;;;;;;;3.08;2.00;;;;;;;-0.08;57.47;94481.59;4189648;28;20052;-72
2023/11/27 07:03:45;;;;;;;3.45;2.05;;;;;;;-0.04;58.00;94511.38;4198560;28;20062;-69
2023/11/27 07:05:47;;;;;;;4.07;1.80;;;;;;;-0.19;56.61;94509.81;4185487;28;20171;-72
2023/11/27 07:07:49;;;;;;;2.90;1.70;;;;;;;-0.04;56.18;94511.38;4184486;28;20502;-73
2023/11/27 07:09:56;;;;;;;3.60;2.13;;;;;;;0.13;56.66;94506.88;4191718;28;20041;-71
2023/11/27 07:11:58;;;;;;;2.40;1.40;;;;;;;0.24;55.79;94517.31;4161009;28;20104;-72
2023/11/27 07:14:01;;;;;;;2.92;1.50;;;;;;;0.28;54.98;94517.91;4195632;28;20044;-70
2023/11/27 07:16:03;;;;;;;2.85;1.35;;;;;;;0.24;54.03;94521.63;4195107;28;20163;-72
2023/11/27 07:18:05;;;;;;;3.28;1.88;;;;;;;0.29;53.76;94527.31;4177697;28;20045;-71
2023/11/27 07:20:21;;;;;;;2.45;1.45;;;;;;;0.40;52.67;94512.78;4177824;28;20036;-71
2023/11/27 07:22:23;;;;;;;2.75;1.40;;;;;;;0.53;52.70;94519.69;4195055;28;20102;-71
2023/11/27 07:24:25;;;;;;;2.13;1.27;;;;;;;0.59;52.97;94509.78;4195391;28;20044;-72
2023/11/27 07:26:27;;;;;;;2.28;1.27;;;;;;;0.49;52.78;94516.50;4193048;28;20075;-70
2023/11/27 07:28:29;;;;;;;2.08;1.50;;;;;;;0.49;52.47;94510.50;4182011;28;20054;-70
2023/11/27 07:30:31;;;;;;;4.50;1.33;;;;;;;0.46;51.91;94508.97;4195269;28;20453;-72
2023/11/27 07:32:33;;;;;;;4.20;1.30;;;;;;;0.39;52.05;94503.41;4194827;28;20058;-71
2023/11/27 07:34:34;;;;;;;3.40;1.33;;;;;;;0.44;52.57;94526.28;4176341;28;20091;-71
2023/11/27 07:36:36;;;;;;;4.88;1.40;;;;;;;0.51;52.17;94512.06;4195093;28;20463;-71
2023/11/27 07:38:40;;;;;;;2.17;1.40;;;;;;;0.55;52.16;94517.84;4172167;28;20719;-72
2023/11/27 07:40:42;;;;;;;2.65;1.50;;;;;;;0.50;53.06;94523.31;4188934;28;20076;-71
2023/11/27 07:42:44;;;;;;;3.80;1.60;;;;;;;0.63;53.37;94525.88;4192833;28;20395;-72
2023/11/27 07:44:49;;;;;;;2.10;1.25;;;;;;;0.51;52.40;94514.63;4174703;28;20072;-73
2023/11/27 07:46:51;;;;;;;3.38;1.40;;;;;;;0.51;53.25;94531.88;4193621;28;20078;-73
2023/11/27 07:48:53;;;;;;;6.78;1.50;;;;;;;0.42;52.27;94509.28;4195418;28;20526;-72
2023/11/27 07:50:55;;;;;;;1.95;1.13;;;;;;;0.47;52.25;94527.84;4168117;28;20530;-70
2023/11/27 07:52:57;;;;;;;2.58;1.40;;;;;;;0.46;52.39;94510.72;4191268;28;20055;-72
2023/11/27 07:54:59;;;;;;;2.33;1.50;;;;;;;0.52;52.47;94495.69;4193100;28;20487;-71
2023/11/27 07:57:01;;;;;;;2.58;1.52;;;;;;;0.55;52.48;94508.34;4193670;28;20261;-73
2023/11/27 07:59:06;;;;;;;2.70;1.60;;;;;;;0.53;53.32;94512.78;4195449;28;20445;-72
2023/11/27 08:01:08;;;;;;;2.58;1.50;;;;;;;0.71;53.36;94520.19;4193979;28;20060;-71
2023/11/27 08:03:10;;;;;;;3.72;1.40;;;;;;;0.50;52.47;94504.44;4200450;28;20135;-71
2023/11/27 08:05:15;;;;;;;3.05;1.50;;;;;;;0.63;52.47;94502.69;4193243;28;20075;-73
2023/11/27 08:07:17;;;;;;;2.33;1.38;;;;;;;0.68;52.36;94500.63;4189445;28;20051;-73
2023/11/27 08:09:19;;;;;;;2.25;1.33;;;;;;;0.68;52.13;94497.22;4177321;28;20148;-71
2023/11/27 08:11:34;;;;;;;2.40;1.38;;;;;;;0.61;52.75;94517.44;4183455;28;20080;-73
2023/11/27 08:13:36;;;;;;;2.67;1.35;;;;;;;0.68;52.53;94490.31;4184673;28;20511;-73
2023/11/27 08:15:38;;;;;;;2.88;1.67;;;;;;;0.72;53.36;94508.97;4162206;28;20088;-71
2023/11/27 08:17:40;;;;;;;2.20;1.17;;;;;;;0.88;52.57;94495.84;4179175;28;20657;-73
2023/11/27 08:19:42;;;;;;;2.28;1.08;;;;;;;0.95;51.41;94497.91;4187923;28;20052;-72
2023/11/27 08:21:44;;;;;;;2.08;1.25;;;;;;;1.14;51.77;94483.72;4186855;28;20133;-71
2023/11/27 08:23:47;;;;;;;2.83;1.35;;;;;;;1.32;51.14;94484.19;4185077;28;20419;-71
2023/11/27 08:25:49;;;;;;;2.93;1.67;;;;;;;1.40;51.10;94481.91;4180686;28;20511;-72
2023/11/27 08:27:52;;;;;;;2.40;1.33;;;;;;;1.60;50.50;94504.53;4189102;28;20044;-72
2023/11/27 08:29:54;;;;;;;1.80;1.02;;;;;;;1.68;49.71;94490.22;4187085;28;20044;-69
2023/11/27 08:32:00;;;;;;;3.40;1.52;;;;;;;1.49;49.55;94499.31;4196199;28;20131;-71
2023/11/27 08:34:03;;;;;;;3.60;1.75;;;;;;;1.61;50.01;94513.94;4195062;28;20487;-72
2023/11/27 08:36:06;;;;;;;6.82;3.50;;;;;;;1.15;51.62;94529.25;4182982;28;20053;-72
2023/11/27 08:38:08;;;;;;;6.60;1.50;;;;;;;1.40;49.73;94502.56;4182912;28;20504;-71
2023/11/27 08:40:12;;;;;;;2.92;1.52;;;;;;;1.51;49.55;94506.97;4195731;28;20048;-71
2023/11/27 08:42:15;;;;;;;6.25;1.63;;;;;;;1.66;49.49;94525.66;4196511;28;20055;-72
2023/11/27 08:44:17;;;;;;;2.30;1.40;;;;;;;1.62;49.31;94525.91;4197826;28;20723;-73
2023/11/27 08:46:19;;;;;;;8.38;4.38;;;;;;;1.68;50.29;94526.38;4197237;28;20155;-71
2023/11/27 08:48:21;;;;;;;4.47;2.42;;;;;;;1.33;50.04;94527.13;4193319;28;20056;-71
2023/11/27 08:50:25;;;;;;;2.95;1.65;;;;;;;1.60;50.02;94512.28;4188549;28;20082;-74
2023/11/27 08:52:27;;;;;;;2.60;1.73;;;;;;;1.93;50.12;94515.13;4197245;28;20040;-71
2023/11/27 08:54:32;;;;;;;2.92;1.65;;;;;;;2.16;48.96;94518.63;4196862;28;20055;-72
2023/11/27 08:56:34;;;;;;;4.50;1.52;;;;;;;2.18;48.52;94522.75;4194009;28;20045;-72
2023/11/27 08:58:36;;;;;;;3.70;2.30;;;;;;;2.23;49.25;94518.03;4195626;28;20475;-70
2023/11/27 09:00:39;;;;;;;6.15;3.60;;;;;;;2.09;49.01;94527.75;4195960;28;20071;-70
2023/11/27 09:02:41;;;;;;;3.70;2.17;;;;;;;1.91;50.11;94529.91;4196727;28;20746;-71
2023/11/27 09:04:43;;;;;;;3.33;2.35;;;;;;;1.83;50.82;94527.91;4169390;28;20077;-71
2023/11/27 09:06:45;;;;;;;7.30;4.53;;;;;;;1.91;50.85;94535.91;4172473;28;20113;-72
2023/11/27 09:08:47;;;;;;;4.63;3.03;;;;;;;1.83;50.66;94510.63;4197227;28;20048;-70
2023/11/27 09:10:50;;;;;;;3.28;1.80;;;;;;;2.11;49.78;94507.78;4190268;28;20052;-72
2023/11/27 09:12:51;;;;;;;2.20;1.60;;;;;;;2.22;49.94;94507.84;4193328;28;20049;-72
2023/11/27 09:14:53;;;;;;;2.28;1.50;;;;;;;2.24;49.45;94505.97;4190177;28;20049;-71
2023/11/27 09:16:55;;;;;;;3.75;1.55;;;;;;;2.25;49.23;94507.59;4191093;28;20482;-71
2023/11/27 09:19:00;;;;;;;4.85;3.28;;;;;;;1.94;50.57;94509.03;4195030;28;20079;-71
2023/11/27 09:21:02;;;;;;;9.13;3.45;;;;;;;1.76;50.87;94508.59;4186007;28;20437;-70
2023/11/27 09:23:03;;;;;;;11.48;3.72;;;;;;;2.08;51.17;94495.09;4196344;28;20131;-71
2023/11/27 09:25:09;;;;;;;3.42;1.75;;;;;;;2.18;49.89;94496.91;4190590;28;20055;-72
2023/11/27 09:27:11;;;;;;;2.60;1.58;;;;;;;2.33;49.60;94481.19;4184098;28;20044;-71
2023/11/27 09:29:13;;;;;;;2.35;1.40;;;;;;;2.32;49.29;94495.03;4186678;28;20056;-73
2023/11/27 09:31:15;;;;;;;3.17;1.20;;;;;;;2.13;49.30;94486.09;4190418;28;20051;-72
2023/11/27 09:33:17;;;;;;;3.05;0.90;;;;;;;2.14;48.40;94476.56;4194335;28;20048;-72
2023/11/27 09:35:20;;;;;;;3.17;1.10;;;;;;;2.16;48.22;94482.44;4186431;28;20106;-72
2023/11/27 09:37:22;;;;;;;2.28;1.30;;;;;;;2.41;48.63;94464.16;4189419;28;20088;-72
2023/11/27 09:39:24;;;;;;;2.15;1.30;;;;;;;2.56;48.02;94469.09;4197214;28;20056;-71